LSZH/ZRH METAR and TAF weather

Enter ICAO airport designator
Station Type Date Time Source
LSZH METAR 2022/09/26 09:50 UTC NOAA

LSZH 260950Z 26006KT 9999 FEW015 BKN068 13/08 Q1010 NOSIG


Station Type Date Time Source
LSZH Decoded METAR 2022/09/26 09:50 UTC NOAA

Zurich-Kloten, Switzerland (LSZH) 47-29N 008-32E 432M
Sep 26, 2022 - 05:50 AM EDT / 2022.09.26 0950 UTC
Wind: from the W (260 degrees) at 7 MPH (6 KT):0
Visibility: greater than 7 mile(s):0
Sky conditions: mostly cloudy
Temperature: 55 F (13 C)
Dew Point: 46 F (8 C)
Relative Humidity: 71%
Pressure (altimeter): 29.83 in. Hg (1010 hPa)
ob: LSZH 260950Z 26006KT 9999 FEW015 BKN068 13/08 Q1010 NOSIG
cycle: 10

Station Type Date Time Source
LSZH TAF 2022/09/26 09:33 UTC NOAA

TAF LSZH 260825Z 2609/2715 26006KT 9999 FEW012 SCT020 BKN030 TX16/2614Z TN08/2705Z TX12/2714Z PROB40
TEMPO 2609/2615 28010KT SHRA
BECMG 2623/2702 24010KT -RA PROB40
TEMPO 2702/2706 25015G25KT RA BKN012
TEMPO 2706/2715 25015G28KT SHRA

Example: see airport list